Terminal Aerodrome Forecast
Issued by NWS St Louis, MO

Home | Current Version | Previous Version | Text Only | Print | Product List | Glossary On
Versions: 1 2 3 4 5 6 7 8 9 10 11 12 13 14 15 16 17 18 19 20 21 22 23 24 25 26 27 28 29 30 31 32
237
FTUS43 KLSX 250910 AAA
TAFSTL
TAF AMD
KSTL 250910Z 2509/2612 15012KT 6SM -RA BR SCT009 OVC050
     FM251100 17011KT P6SM BKN090
     FM251700 15014G21KT 6SM -RA VCTS BKN035CB
     FM260100 15008KT P6SM BKN035
     FM260500 19006KT 6SM BR OVC015=

USA.gov is the U.S. government's official web portal to all federal, state and local government web resources and services.